Time;durP1;ratioP1;P1;durP2;ratioP2;P2;SDS_P1;SDS_P2;PMS_P1;PMS_P2;Temp;Humidity;BMP_temperature;BMP_pressure;BME280_temperature;BME280_humidity;BME280_pressure;Samples;Min_cycle;Max_cycle;Signal;HPM_P1;HPM_P2
2022/02/05 00:04:06;;;;;;;6.73;3.97;;;3.70;99.90;;;;;;5072003;28;20456;-76
2022/02/05 00:06:36;;;;;;;7.07;3.60;;;3.70;99.90;;;;;;5053930;28;20179;-76
2022/02/05 00:09:19;;;;;;;10.13;4.60;;;3.70;99.90;;;;;;5054060;28;20421;-76
2022/02/05 00:38:38;;;;;;;7.20;3.93;;;3.80;99.90;;;;;;5071794;28;20224;-76
2022/02/05 00:43:44;;;;;;;6.27;4.93;;;3.80;99.90;;;;;;5071828;28;20523;-76
2022/02/05 00:46:10;;;;;;;8.23;4.03;;;3.80;99.90;;;;;;5053714;28;20417;-77
2022/02/05 00:48:35;;;;;;;6.10;3.40;;;3.80;99.90;;;;;;5071253;22;20534;-81
2022/02/05 00:51:12;;;;;;;5.40;3.30;;;3.90;99.90;;;;;;5068341;28;20642;-82
2022/02/05 00:53:40;;;;;;;4.57;3.30;;;3.90;99.90;;;;;;5070651;28;20185;-80
2022/02/05 00:56:13;;;;;;;5.73;2.87;;;3.80;99.90;;;;;;5070453;28;20834;-81
2022/02/05 00:58:40;;;;;;;19.83;3.80;;;3.80;99.90;;;;;;5069863;28;20433;-81
2022/02/05 01:01:07;;;;;;;8.50;3.77;;;3.80;99.90;;;;;;5068924;28;20443;-83
2022/02/05 01:03:36;;;;;;;7.40;3.40;;;3.80;99.90;;;;;;5070302;28;20417;-82
2022/02/05 01:06:03;;;;;;;6.53;3.43;;;3.80;99.90;;;;;;5068672;28;20429;-81
2022/02/05 01:08:30;;;;;;;7.83;3.40;;;3.80;99.90;;;;;;5068838;28;20440;-81
2022/02/05 01:10:56;;;;;;;5.37;2.73;;;3.80;99.90;;;;;;5069140;28;20449;-82
2022/02/05 01:13:22;;;;;;;7.93;3.10;;;3.80;99.90;;;;;;5088360;28;20424;-81
2022/02/05 01:18:21;;;;;;;9.00;3.20;;;3.90;99.90;;;;;;5088154;28;20529;-82
2022/02/05 01:21:06;;;;;;;7.23;2.70;;;3.90;99.90;;;;;;5069812;28;20692;-82
2022/02/05 01:23:50;;;;;;;7.37;2.53;;;4.00;99.90;;;;;;5069924;28;20421;-83
2022/02/05 01:26:28;;;;;;;6.43;3.43;;;3.90;99.90;;;;;;5087763;28;20420;-82
2022/02/05 01:29:03;;;;;;;7.83;3.93;;;3.90;99.90;;;;;;5088784;28;20457;-82
2022/02/05 01:31:35;;;;;;;9.87;3.00;;;3.90;99.90;;;;;;5087125;28;20457;-83
2022/02/05 01:34:18;;;;;;;6.07;2.37;;;3.90;99.90;;;;;;5082416;28;20496;-82
2022/02/05 01:50:18;;;;;;;4.40;2.13;;;4.00;99.90;;;;;;5082791;28;20436;-83
2022/02/05 02:11:34;;;;;;;12.30;2.50;;;4.00;99.90;;;;;;5083454;28;20460;-83
2022/02/05 02:16:46;;;;;;;4.90;2.53;;;4.00;99.90;;;;;;5083328;28;20429;-81
2022/02/05 02:21:52;;;;;;;5.00;2.20;;;3.90;99.90;;;;;;5083441;28;20425;-82
2022/02/05 02:24:32;;;;;;;6.47;2.60;;;3.90;99.90;;;;;;5065436;28;20179;-83
2022/02/05 02:32:20;;;;;;;9.20;2.90;;;4.00;99.90;;;;;;5083456;28;20561;-82
2022/02/05 02:34:50;;;;;;;5.47;2.80;;;4.00;99.90;;;;;;5083488;28;20410;-83
2022/02/05 02:37:21;;;;;;;9.20;2.90;;;4.00;99.90;;;;;;5065386;28;20441;-82
2022/02/05 02:42:34;;;;;;;5.07;2.40;;;3.90;99.90;;;;;;5083683;28;20417;-81
2022/02/05 02:44:59;;;;;;;3.50;2.00;;;3.90;99.90;;;;;;5066668;28;20496;-80
2022/02/05 02:47:25;;;;;;;3.90;2.30;;;3.90;99.90;;;;;;5065692;28;21011;-83
2022/02/05 02:57:57;;;;;;;6.07;2.30;;;3.90;99.90;;;;;;5083825;28;20435;-83
2022/02/05 03:00:25;;;;;;;5.60;2.33;;;3.90;99.90;;;;;;5083958;28;20418;-84
2022/02/05 03:02:50;;;;;;;3.73;2.00;;;3.90;99.90;;;;;;5065318;28;20472;-81
2022/02/05 03:05:16;;;;;;;3.87;2.00;;;3.90;99.90;;;;;;5066426;28;20417;-82
2022/02/05 03:07:41;;;;;;;6.37;2.33;;;3.90;99.90;;;;;;5085854;28;20222;-84
2022/02/05 03:10:07;;;;;;;4.83;2.00;;;3.90;99.90;;;;;;5067053;28;20203;-82
2022/02/05 03:12:36;;;;;;;3.83;1.87;;;3.90;99.90;;;;;;5066508;28;20267;-82
2022/02/05 03:15:03;;;;;;;8.83;2.23;;;3.90;99.90;;;;;;5084729;28;20409;-83
2022/02/05 03:17:32;;;;;;;10.50;2.47;;;4.00;99.90;;;;;;5064785;28;20479;-84
2022/02/05 03:19:59;;;;;;;3.93;1.70;;;3.90;99.90;;;;;;5083680;28;20423;-82
2022/02/05 03:22:25;;;;;;;4.97;2.00;;;3.90;99.90;;;;;;5085147;28;20414;-82
2022/02/05 03:24:51;;;;;;;8.30;1.87;;;3.90;99.90;;;;;;5067552;28;20194;-82
2022/02/05 03:27:19;;;;;;;7.93;1.90;;;3.90;99.90;;;;;;5067371;28;20204;-81
2022/02/05 03:29:48;;;;;;;3.50;2.00;;;3.90;99.90;;;;;;5084948;28;20175;-81
2022/02/05 03:32:18;;;;;;;4.50;2.37;;;3.80;99.90;;;;;;5066510;28;20468;-82
2022/02/05 03:34:44;;;;;;;5.30;2.07;;;3.80;99.90;;;;;;5084771;28;20416;-83
2022/02/05 03:37:10;;;;;;;10.53;2.60;;;3.90;99.90;;;;;;5068530;28;21015;-82
2022/02/05 03:39:35;;;;;;;7.03;2.00;;;3.80;99.90;;;;;;5066983;28;20190;-83
2022/02/05 03:42:01;;;;;;;6.60;2.37;;;3.80;99.90;;;;;;5084626;28;20185;-83
2022/02/05 03:44:27;;;;;;;7.43;2.33;;;3.80;99.90;;;;;;5066859;28;20183;-82
2022/02/05 03:46:54;;;;;;;8.03;2.07;;;3.80;99.90;;;;;;5066633;28;20425;-81
2022/02/05 03:49:23;;;;;;;6.90;2.73;;;3.80;99.90;;;;;;5067922;28;20999;-81
2022/02/05 03:51:50;;;;;;;6.43;2.10;;;3.80;99.90;;;;;;5068106;28;20518;-83
2022/02/05 03:54:20;;;;;;;5.47;2.20;;;3.80;99.90;;;;;;5086149;28;20424;-81
2022/02/05 03:56:46;;;;;;;8.33;2.20;;;3.70;99.90;;;;;;5068911;28;20422;-81
2022/02/05 03:59:12;;;;;;;4.53;2.23;;;3.70;99.90;;;;;;5068854;28;20463;-82
2022/02/05 04:01:38;;;;;;;8.10;2.60;;;3.70;99.90;;;;;;5068794;28;20449;-82
2022/02/05 04:04:06;;;;;;;4.47;2.00;;;3.60;99.90;;;;;;5086869;28;20183;-81
2022/02/05 04:06:32;;;;;;;8.13;2.27;;;3.60;99.90;;;;;;5086373;28;20422;-81
2022/02/05 04:09:03;;;;;;;6.53;2.63;;;3.70;99.90;;;;;;5087461;28;20199;-82
2022/02/05 04:11:49;;;;;;;6.83;2.03;;;3.70;99.90;;;;;;5069652;28;20473;-82
2022/02/05 04:17:00;;;;;;;6.77;2.10;;;3.70;99.90;;;;;;5086611;28;20908;-81
2022/02/05 04:19:25;;;;;;;5.10;2.20;;;3.60;99.90;;;;;;5087208;28;20410;-83
2022/02/05 04:21:52;;;;;;;4.40;2.17;;;3.60;99.90;;;;;;5069222;28;20194;-82
2022/02/05 04:24:18;;;;;;;7.00;2.53;;;3.60;99.90;;;;;;5085273;28;20262;-80
2022/02/05 04:26:44;;;;;;;6.00;2.23;;;3.60;99.90;;;;;;5067357;28;20496;-82
2022/02/05 04:29:10;;;;;;;4.63;2.20;;;3.60;99.90;;;;;;5067839;28;20436;-82
2022/02/05 04:31:37;;;;;;;5.40;1.90;;;3.60;99.90;;;;;;5084946;28;20198;-82
2022/02/05 04:34:04;;;;;;;6.37;2.50;;;3.60;99.90;;;;;;5067581;28;20780;-81
2022/02/05 04:36:30;;;;;;;8.17;2.73;;;3.50;99.90;;;;;;5068231;28;20418;-81
2022/02/05 04:39:00;;;;;;;6.00;2.50;;;3.60;99.90;;;;;;5068448;28;20505;-82
2022/02/05 04:41:41;;;;;;;6.07;2.87;;;3.60;99.90;;;;;;5085964;28;20417;-81
2022/02/05 04:44:27;;;;;;;6.43;1.87;;;3.70;99.90;;;;;;5068850;28;20441;-80
2022/02/05 04:58:06;;;;;;;6.10;2.57;;;3.60;99.90;;;;;;5085531;28;20472;-82
2022/02/05 05:00:50;;;;;;;5.90;2.20;;;3.60;99.90;;;;;;5068494;28;20436;-81
2022/02/05 05:03:41;;;;;;;6.77;2.43;;;3.60;99.90;;;;;;5086215;28;20405;-83
2022/02/05 05:09:04;;;;;;;6.00;2.47;;;3.60;99.90;;;;;;5085791;28;20471;-81
2022/02/05 05:19:47;;;;;;;6.37;2.70;;;3.60;99.90;;;;;;5085911;28;20186;-81
2022/02/05 05:22:14;;;;;;;6.20;2.13;;;3.50;99.90;;;;;;5067429;28;20431;-81
2022/02/05 05:24:40;;;;;;;9.17;2.70;;;3.60;99.90;;;;;;5068191;28;20532;-81
2022/02/05 05:27:05;;;;;;;5.40;2.47;;;3.60;99.90;;;;;;5068206;28;20421;-82
2022/02/05 05:29:32;;;;;;;7.90;2.63;;;3.60;99.90;;;;;;5067579;28;20179;-81
2022/02/05 05:31:58;;;;;;;4.60;2.80;;;3.60;99.90;;;;;;5085332;28;20191;-81
2022/02/05 05:34:23;;;;;;;6.63;2.60;;;3.60;99.90;;;;;;5069370;28;20502;-82
2022/02/05 05:36:49;;;;;;;5.20;2.23;;;3.60;99.90;;;;;;5068311;28;20181;-84
2022/02/05 05:39:15;;;;;;;9.37;2.80;;;3.60;99.90;;;;;;5063296;28;20203;-83
2022/02/05 05:41:42;;;;;;;5.30;2.17;;;3.50;99.90;;;;;;5064119;28;20558;-83
2022/02/05 05:46:51;;;;;;;11.47;1.93;;;3.50;99.90;;;;;;5082370;28;20455;-83
2022/02/05 05:49:22;;;;;;;6.27;2.57;;;3.60;99.90;;;;;;5082448;28;20460;-83
2022/02/05 05:51:48;;;;;;;6.60;3.40;;;3.60;99.90;;;;;;5064672;28;20487;-83
2022/02/05 05:54:15;;;;;;;6.63;2.53;;;3.60;99.90;;;;;;5064587;28;20420;-83
2022/02/05 05:56:42;;;;;;;5.33;2.47;;;3.60;99.90;;;;;;5082503;28;20939;-82
2022/02/05 05:59:08;;;;;;;3.90;2.30;;;3.70;99.90;;;;;;5082903;28;20429;-83
2022/02/05 06:01:36;;;;;;;3.90;1.87;;;3.70;99.90;;;;;;5067278;28;20823;-83
2022/02/05 06:04:02;;;;;;;4.70;2.60;;;3.70;99.90;;;;;;5064212;28;20421;-83
2022/02/05 06:06:28;;;;;;;7.83;2.60;;;3.70;99.90;;;;;;5063981;28;20431;-83
2022/02/05 06:08:53;;;;;;;8.63;2.50;;;3.80;99.90;;;;;;5064461;28;20199;-82
2022/02/05 06:11:19;;;;;;;8.67;3.20;;;3.90;99.90;;;;;;5082444;28;20230;-81
2022/02/05 06:13:44;;;;;;;7.70;2.43;;;3.90;99.90;;;;;;5084584;28;20183;-83
2022/02/05 06:16:17;;;;;;;11.13;2.40;;;4.00;99.90;;;;;;5086070;28;20175;-83
2022/02/05 06:18:42;;;;;;;5.03;1.93;;;4.10;99.90;;;;;;5086058;28;20222;-82
2022/02/05 06:21:08;;;;;;;5.33;2.63;;;4.10;99.90;;;;;;5072718;28;20436;-81
2022/02/05 06:23:34;;;;;;;7.30;2.77;;;4.10;99.90;;;;;;5091053;28;20171;-81
2022/02/05 06:26:00;;;;;;;4.20;2.00;;;4.10;99.90;;;;;;5090696;28;20175;-81
2022/02/05 06:28:25;;;;;;;11.23;3.10;;;4.10;99.90;;;;;;5072755;28;20582;-81
2022/02/05 06:30:51;;;;;;;7.10;2.20;;;4.10;99.90;;;;;;5090302;28;20176;-83
2022/02/05 06:33:17;;;;;;;4.57;2.50;;;4.00;99.90;;;;;;5090332;28;20465;-81
2022/02/05 06:35:43;;;;;;;7.30;2.50;;;4.00;99.90;;;;;;5091343;28;20199;-81
2022/02/05 06:38:09;;;;;;;7.47;2.73;;;4.00;99.90;;;;;;5073739;28;20199;-81
2022/02/05 06:40:34;;;;;;;3.53;2.13;;;4.00;99.90;;;;;;5091626;28;20414;-81
2022/02/05 06:43:00;;;;;;;8.57;2.40;;;4.00;99.90;;;;;;5071629;28;20179;-82
2022/02/05 06:45:26;;;;;;;4.67;3.67;;;4.00;99.90;;;;;;5083570;28;20175;-83
2022/02/05 06:47:52;;;;;;;5.37;2.27;;;3.90;99.90;;;;;;5065223;28;20223;-83
2022/02/05 06:50:17;;;;;;;5.30;2.30;;;4.00;99.90;;;;;;5125350;22;20245;-79
2022/02/05 06:52:44;;;;;;;7.47;2.20;;;3.90;99.90;;;;;;5078718;28;20210;-79
2022/02/05 06:55:10;;;;;;;13.27;2.90;;;3.90;99.90;;;;;;5096228;28;20284;-78
2022/02/05 06:57:36;;;;;;;7.73;3.30;;;3.90;99.90;;;;;;5097107;28;20408;-79
2022/02/05 07:00:04;;;;;;;9.53;2.90;;;3.80;99.90;;;;;;5078511;28;20526;-78
2022/02/05 07:02:30;;;;;;;4.17;1.97;;;3.80;99.90;;;;;;5078027;28;20186;-78
2022/02/05 07:04:56;;;;;;;7.23;1.97;;;3.90;99.90;;;;;;5096360;28;20408;-78
2022/02/05 07:07:21;;;;;;;9.53;2.33;;;3.90;99.90;;;;;;5077816;28;20231;-78
2022/02/05 07:09:47;;;;;;;5.90;2.40;;;3.90;99.90;;;;;;5096344;28;20225;-78
2022/02/05 07:12:12;;;;;;;9.03;2.07;;;3.90;99.90;;;;;;5078217;28;20209;-78
2022/02/05 07:14:56;;;;;;;5.33;2.10;;;3.90;99.90;;;;;;5096032;28;20177;-78
2022/02/05 07:17:33;;;;;;;3.10;2.03;;;3.90;99.90;;;;;;5095933;28;20162;-78
2022/02/05 07:20:07;;;;;;;7.97;1.97;;;4.00;99.90;;;;;;5096046;28;20451;-78
2022/02/05 07:22:42;;;;;;;4.63;1.70;;;4.00;99.90;;;;;;5095882;28;20911;-78
2022/02/05 07:30:21;;;;;;;8.33;2.30;;;3.90;99.90;;;;;;5096058;28;20570;-78
2022/02/05 07:32:46;;;;;;;7.73;2.33;;;3.90;99.90;;;;;;5095275;28;20536;-78
2022/02/05 07:35:12;;;;;;;6.30;2.53;;;3.90;99.90;;;;;;5095397;28;20577;-78
2022/02/05 07:37:37;;;;;;;6.97;2.70;;;3.90;99.90;;;;;;5076895;28;20170;-78
2022/02/05 07:40:04;;;;;;;3.63;2.30;;;3.90;99.90;;;;;;5095128;28;20213;-78
2022/02/05 07:42:30;;;;;;;6.03;2.80;;;3.90;99.90;;;;;;5094771;28;20177;-78
2022/02/05 07:44:55;;;;;;;5.07;2.43;;;4.00;99.90;;;;;;5095078;28;20474;-78
2022/02/05 07:47:22;;;;;;;8.13;3.17;;;4.00;99.90;;;;;;5094456;28;20722;-78
2022/02/05 07:49:48;;;;;;;8.10;2.70;;;4.00;99.90;;;;;;5075193;28;20210;-78
2022/02/05 07:52:14;;;;;;;5.80;2.67;;;4.00;99.90;;;;;;5092800;28;20825;-78
2022/02/05 07:54:40;;;;;;;4.50;2.17;;;4.00;99.90;;;;;;5093080;28;20422;-78
2022/02/05 07:57:06;;;;;;;6.33;2.67;;;4.10;99.90;;;;;;5092592;28;20170;-78
2022/02/05 07:59:32;;;;;;;4.17;2.23;;;4.10;99.90;;;;;;5073814;28;20433;-78
2022/02/05 08:01:58;;;;;;;6.40;3.20;;;4.10;99.90;;;;;;5074706;28;20852;-78
2022/02/05 08:04:23;;;;;;;13.20;3.10;;;4.10;99.90;;;;;;5074561;28;20183;-78
2022/02/05 08:06:50;;;;;;;7.13;2.67;;;4.20;99.90;;;;;;5074323;28;20182;-78
2022/02/05 08:09:21;;;;;;;6.37;3.10;;;4.20;99.90;;;;;;5074280;28;20233;-78
2022/02/05 08:14:18;;;;;;;10.40;2.83;;;4.30;99.90;;;;;;5092687;28;20420;-78
2022/02/05 08:17:01;;;;;;;4.20;2.50;;;4.30;99.90;;;;;;5074141;28;20899;-78
2022/02/05 08:19:27;;;;;;;8.90;2.77;;;4.40;99.90;;;;;;5092219;28;20433;-78
2022/02/05 08:21:52;;;;;;;6.70;2.87;;;4.50;99.90;;;;;;5092335;28;20428;-78
2022/02/05 08:24:18;;;;;;;8.00;3.47;;;4.50;99.90;;;;;;5074178;28;20191;-78
2022/02/05 08:26:44;;;;;;;9.13;3.17;;;4.60;99.90;;;;;;5092019;28;20596;-78
2022/02/05 08:29:12;;;;;;;7.87;2.93;;;4.60;99.90;;;;;;5092165;28;20197;-77
2022/02/05 08:31:37;;;;;;;11.10;2.87;;;4.70;99.90;;;;;;5092015;28;20618;-77
2022/02/05 08:34:03;;;;;;;5.30;2.17;;;5.00;99.90;;;;;;5073814;28;20501;-77
2022/02/05 08:36:43;;;;;;;7.20;3.10;;;4.90;99.90;;;;;;5073602;28;20180;-77
2022/02/05 08:39:10;;;;;;;9.67;2.53;;;4.90;99.90;;;;;;5091945;28;21052;-78
2022/02/05 08:41:36;;;;;;;7.50;2.70;;;5.10;99.90;;;;;;5092732;28;20795;-77
2022/02/05 08:44:01;;;;;;;3.13;2.13;;;5.10;99.90;;;;;;5074608;28;20451;-77
2022/02/05 08:46:27;;;;;;;9.60;2.23;;;5.00;99.90;;;;;;5074483;28;20975;-80
2022/02/05 08:48:53;;;;;;;5.70;3.37;;;5.20;99.90;;;;;;5095067;28;20186;-79
2022/02/05 08:51:19;;;;;;;6.47;3.30;;;5.20;99.90;;;;;;5076477;28;20200;-79
2022/02/05 08:53:45;;;;;;;8.63;2.60;;;5.30;99.90;;;;;;5076184;28;20412;-81
2022/02/05 08:56:10;;;;;;;6.47;3.00;;;5.40;99.90;;;;;;5075994;28;20837;-80
2022/02/05 08:58:36;;;;;;;7.90;2.67;;;5.40;99.90;;;;;;5093974;28;20167;-81
2022/02/05 09:01:26;;;;;;;8.50;2.80;;;5.40;99.90;;;;;;5094441;28;20163;-81
2022/02/05 09:04:02;;;;;;;7.13;2.80;;;5.50;99.90;;;;;;5094471;28;20732;-81
2022/02/05 09:06:32;;;;;;;8.17;3.10;;;5.50;99.90;;;;;;5075169;28;20482;-81
2022/02/05 09:09:16;;;;;;;8.53;2.87;;;5.50;99.90;;;;;;5094300;28;20429;-80
2022/02/05 09:11:52;;;;;;;6.87;3.40;;;5.70;99.90;;;;;;5099009;28;20499;-79
2022/02/05 09:14:32;;;;;;;8.30;2.77;;;5.80;99.90;;;;;;5079847;28;20418;-80
2022/02/05 09:16:57;;;;;;;6.77;3.03;;;5.90;99.90;;;;;;5097446;28;20538;-81
2022/02/05 09:19:23;;;;;;;10.43;3.40;;;5.80;99.90;;;;;;5080404;28;20988;-80
2022/02/05 09:21:49;;;;;;;7.07;3.27;;;5.90;99.90;;;;;;5080389;28;20184;-80
2022/02/05 09:24:15;;;;;;;6.80;2.97;;;5.90;99.90;;;;;;5079803;28;20185;-80
2022/02/05 09:26:44;;;;;;;11.83;3.30;;;5.90;99.90;;;;;;5080475;28;20872;-80
2022/02/05 09:29:14;;;;;;;5.97;2.23;;;6.00;99.90;;;;;;5097961;28;20710;-80
2022/02/05 09:31:40;;;;;;;6.50;3.57;;;6.10;99.90;;;;;;5080550;28;20546;-80
2022/02/05 09:34:07;;;;;;;9.33;3.13;;;6.20;99.90;;;;;;5098789;28;20436;-80
2022/02/05 09:36:35;;;;;;;7.37;2.80;;;6.20;99.90;;;;;;5079725;28;20229;-80
2022/02/05 09:39:00;;;;;;;6.83;3.13;;;6.20;99.90;;;;;;5098044;28;20502;-80
2022/02/05 09:41:26;;;;;;;6.30;3.10;;;6.20;99.90;;;;;;5079930;28;20719;-79
2022/02/05 09:43:53;;;;;;;9.13;3.40;;;6.30;99.90;;;;;;5079818;28;20192;-80
2022/02/05 09:46:20;;;;;;;15.83;4.17;;;6.30;99.90;;;;;;5098314;28;20419;-80
2022/02/05 09:48:48;;;;;;;11.27;3.37;;;6.40;99.90;;;;;;5079584;28;20431;-80
2022/02/05 09:51:18;;;;;;;7.13;3.10;;;6.60;99.90;;;;;;5097524;28;20442;-80
2022/02/05 09:53:49;;;;;;;5.63;2.47;;;6.60;99.90;;;;;;5079935;28;20419;-80
2022/02/05 09:56:16;;;;;;;5.20;2.73;;;6.70;99.90;;;;;;5078940;28;20412;-80
2022/02/05 09:58:42;;;;;;;9.73;2.60;;;6.80;99.90;;;;;;5079071;28;20422;-80
2022/02/05 10:01:19;;;;;;;6.37;2.90;;;7.00;99.90;;;;;;5097030;28;20401;-80
2022/02/05 10:03:46;;;;;;;8.90;3.10;;;7.10;99.90;;;;;;5097141;28;20534;-80
2022/02/05 10:06:18;;;;;;;8.10;3.40;;;7.30;99.90;;;;;;5097185;28;20400;-80
2022/02/05 10:08:46;;;;;;;13.13;3.57;;;7.40;99.90;;;;;;5096540;28;20412;-80
2022/02/05 10:11:12;;;;;;;10.50;3.20;;;7.70;99.90;;;;;;5096936;28;20440;-80
2022/02/05 10:13:38;;;;;;;5.20;2.70;;;7.90;99.90;;;;;;5078633;28;20473;-80
2022/02/05 10:16:04;;;;;;;12.97;2.77;;;8.10;99.90;;;;;;5078487;28;20830;-80
2022/02/05 10:18:35;;;;;;;7.23;2.90;;;8.20;99.90;;;;;;5096269;28;20175;-80
2022/02/05 10:21:03;;;;;;;5.40;2.93;;;8.20;99.90;;;;;;5095929;28;20404;-80
2022/02/05 10:23:30;;;;;;;6.50;3.33;;;8.00;99.90;;;;;;5096537;28;20462;-80
2022/02/05 10:25:56;;;;;;;7.80;3.40;;;7.80;99.90;;;;;;5077726;28;20419;-80
2022/02/05 10:28:23;;;;;;;9.83;3.83;;;7.90;99.90;;;;;;5096695;28;20412;-80
2022/02/05 10:30:52;;;;;;;9.87;5.07;;;7.90;99.90;;;;;;5077847;28;20198;-80
2022/02/05 10:35:57;;;;;;;5.97;2.97;;;7.80;99.90;;;;;;5096243;28;20927;-80
2022/02/05 10:43:58;;;;;;;6.40;3.40;;;8.00;99.90;;;;;;5095527;28;20400;-80
2022/02/05 10:46:35;;;;;;;6.50;3.47;;;8.00;99.90;;;;;;5077132;28;20409;-80
2022/02/05 10:49:01;;;;;;;6.73;4.10;;;8.10;99.90;;;;;;5077150;28;20447;-79
2022/02/05 10:51:45;;;;;;;5.77;2.93;;;7.90;99.90;;;;;;5095119;28;20505;-80
2022/02/05 10:54:33;;;;;;;8.03;3.80;;;8.10;99.90;;;;;;5095339;28;20415;-80
2022/02/05 10:57:08;;;;;;;6.17;3.97;;;8.20;99.90;;;;;;5076919;28;20412;-80
2022/02/05 11:05:50;;;;;;;7.20;3.63;;;8.80;99.90;;;;;;5093888;28;20507;-80
2022/02/05 11:08:20;;;;;;;5.90;3.77;;;8.80;99.90;;;;;;5076085;28;20511;-80
2022/02/05 11:16:40;;;;;;;6.53;3.20;;;8.90;99.90;;;;;;5094746;28;20427;-80
2022/02/05 11:19:02;;;;;;;6.97;3.30;;;8.70;99.90;;;;;;5094249;28;21035;-80
2022/02/05 11:21:30;;;;;;;8.53;3.37;;;8.20;99.90;;;;;;5075888;28;20412;-80
2022/02/05 11:23:59;;;;;;;8.27;3.33;;;7.90;99.90;;;;;;5076437;28;20417;-80
2022/02/05 11:26:25;;;;;;;6.90;3.47;;;7.60;99.90;;;;;;5075973;28;20417;-80
2022/02/05 11:28:56;;;;;;;4.90;3.33;;;7.60;99.90;;;;;;5093834;28;20405;-80
2022/02/05 11:31:33;;;;;;;5.40;3.30;;;8.10;99.90;;;;;;5075711;28;20440;-80
2022/02/05 11:34:48;;;;;;;10.73;3.80;;;10.60;99.90;;;;;;5093480;28;20404;-78
2022/02/05 11:37:14;;;;;;;8.13;3.87;;;11.20;99.90;;;;;;5080222;28;20948;-78
2022/02/05 11:39:48;;;;;;;5.50;3.90;;;11.10;99.90;;;;;;5075603;28;20432;-78
2022/02/05 11:42:25;;;;;;;4.83;3.30;;;10.20;99.90;;;;;;5075445;28;20185;-78
2022/02/05 11:44:51;;;;;;;9.60;3.90;;;11.40;99.90;;;;;;5093494;28;20429;-78
2022/02/05 11:47:19;;;;;;;6.80;4.10;;;11.20;99.90;;;;;;5092994;28;20428;-78
2022/02/05 11:49:51;;;;;;;6.43;4.37;;;12.70;99.90;;;;;;5093149;28;20214;-78
2022/02/05 11:52:35;;;;;;;11.37;4.90;;;15.20;99.90;;;;;;5093114;28;20827;-79
2022/02/05 11:55:05;;;;;;;6.50;3.93;;;16.10;99.90;;;;;;5075150;28;20448;-78
2022/02/05 11:57:46;;;;;;;14.47;4.93;;;16.40;99.90;;;;;;5092898;28;20421;-79
2022/02/05 12:00:22;;;;;;;5.80;3.90;;;16.20;99.90;;;;;;5093010;28;20451;-79
2022/02/05 12:02:58;;;;;;;6.07;3.20;;;16.30;99.90;;;;;;5092978;28;20749;-79
2022/02/05 12:05:30;;;;;;;6.03;3.60;;;16.70;99.90;;;;;;5074687;28;20412;-79
2022/02/05 12:08:05;;;;;;;4.63;3.00;;;18.10;99.90;;;;;;5074659;28;20416;-79
2022/02/05 12:10:40;;;;;;;5.03;2.67;;;18.40;95.30;;;;;;5074514;28;20446;-79
2022/02/05 12:13:40;;;;;;;6.20;3.27;;;18.60;91.40;;;;;;5092909;28;20462;-79
2022/02/05 12:16:06;;;;;;;7.50;3.13;;;19.00;87.70;;;;;;5094838;28;20436;-79
2022/02/05 12:18:56;;;;;;;6.97;2.90;;;17.90;85.20;;;;;;5078132;28;20778;-79
2022/02/05 12:21:29;;;;;;;5.70;3.27;;;15.70;91.80;;;;;;5077715;28;20774;-79
2022/02/05 12:26:26;;;;;;;5.00;3.30;;;13.00;99.90;;;;;;5095726;28;20834;-78
2022/02/05 12:28:55;;;;;;;5.30;2.80;;;11.90;99.90;;;;;;5077024;28;20179;-79
2022/02/05 12:31:21;;;;;;;7.23;3.03;;;11.20;99.90;;;;;;5095199;28;20416;-79
2022/02/05 12:33:52;;;;;;;4.47;2.90;;;10.90;99.90;;;;;;5076622;28;20462;-78
2022/02/05 12:36:40;;;;;;;4.90;3.83;;;10.90;99.90;;;;;;5076788;28;20470;-78
2022/02/05 12:39:09;;;;;;;5.17;2.70;;;10.80;99.90;;;;;;5076864;28;20436;-78
2022/02/05 12:41:36;;;;;;;6.70;3.17;;;10.40;99.90;;;;;;5094662;28;20416;-78
2022/02/05 12:44:06;;;;;;;3.80;2.20;;;9.90;99.90;;;;;;5094255;28;20448;-79
2022/02/05 12:46:55;;;;;;;5.40;2.97;;;10.50;99.90;;;;;;5094084;28;20436;-78
2022/02/05 12:49:34;;;;;;;5.60;2.57;;;11.70;99.90;;;;;;5094960;28;20448;-79
2022/02/05 12:52:01;;;;;;;6.23;2.63;;;11.40;99.90;;;;;;5094930;22;20492;-78
2022/02/05 12:54:29;;;;;;;6.80;2.70;;;11.20;99.90;;;;;;5071222;28;20422;-78
2022/02/05 12:56:57;;;;;;;5.57;2.77;;;11.00;99.90;;;;;;5054395;28;20413;-78
2022/02/05 12:59:30;;;;;;;6.37;2.57;;;10.70;99.90;;;;;;5054730;28;20759;-78
2022/02/05 13:02:08;;;;;;;4.60;2.40;;;10.60;99.90;;;;;;5054564;28;20812;-78
2022/02/05 13:04:37;;;;;;;4.63;2.20;;;11.30;99.90;;;;;;5054736;28;20837;-78
2022/02/05 13:07:05;;;;;;;3.60;1.93;;;12.20;99.90;;;;;;5054356;28;20504;-78
2022/02/05 13:09:34;;;;;;;4.40;2.37;;;13.80;99.90;;;;;;5071200;28;20413;-78
2022/02/05 13:12:03;;;;;;;13.90;2.50;;;15.30;99.90;;;;;;5054944;28;21029;-79
2022/02/05 13:14:53;;;;;;;5.10;2.40;;;15.70;99.90;;;;;;5055129;28;20428;-78
2022/02/05 13:36:10;;;;;;;4.33;1.90;;;12.90;97.40;;;;;;5072768;28;20954;-78
2022/02/05 13:41:49;;;;;;;4.10;1.60;;;11.60;99.90;;;;;;5055764;28;20421;-79
2022/02/05 13:44:19;;;;;;;9.13;2.27;;;12.10;99.90;;;;;;5054120;28;20907;-78
2022/02/05 13:47:04;;;;;;;4.67;2.07;;;12.50;99.90;;;;;;5070910;28;20504;-78
2022/02/05 13:49:31;;;;;;;4.83;2.53;;;12.00;99.90;;;;;;5054047;28;20413;-78
2022/02/05 13:52:14;;;;;;;4.33;1.90;;;11.90;99.90;;;;;;5054091;28;21013;-78
2022/02/05 13:54:42;;;;;;;4.30;2.07;;;11.20;99.90;;;;;;5054414;28;20513;-78
2022/02/05 13:57:13;;;;;;;4.93;2.13;;;10.70;99.90;;;;;;5055102;28;20812;-79
2022/02/05 13:59:39;;;;;;;3.80;2.37;;;10.50;99.90;;;;;;5057833;28;20424;-78
2022/02/05 14:02:16;;;;;;;4.30;2.47;;;10.20;99.90;;;;;;5057441;28;20421;-78
2022/02/05 14:04:43;;;;;;;7.33;2.50;;;10.00;99.90;;;;;;5057779;28;20424;-78
2022/02/05 14:07:09;;;;;;;6.30;2.20;;;9.80;99.90;;;;;;5057318;28;20610;-78
2022/02/05 14:09:36;;;;;;;5.80;1.97;;;9.90;99.90;;;;;;5057513;28;20420;-78
2022/02/05 14:12:17;;;;;;;4.73;2.07;;;10.00;99.90;;;;;;5057510;28;20522;-78
2022/02/05 14:14:43;;;;;;;4.40;3.33;;;10.00;99.90;;;;;;5057763;28;20792;-79
2022/02/05 14:17:19;;;;;;;3.47;1.80;;;10.00;99.90;;;;;;5056956;28;20450;-78
2022/02/05 14:19:47;;;;;;;6.97;2.50;;;10.10;99.90;;;;;;5057345;28;20509;-78
2022/02/05 14:22:29;;;;;;;6.13;2.03;;;10.10;99.90;;;;;;5074415;28;20516;-78
2022/02/05 14:25:29;;;;;;;4.73;2.03;;;9.80;99.90;;;;;;5057497;28;20976;-79
2022/02/05 14:28:16;;;;;;;5.77;2.93;;;9.60;99.90;;;;;;5057266;28;20813;-78
2022/02/05 14:31:01;;;;;;;4.70;1.90;;;9.60;99.90;;;;;;5057711;28;20514;-78
2022/02/05 14:33:36;;;;;;;6.50;2.00;;;9.50;99.90;;;;;;5057523;28;21029;-78
2022/02/05 14:36:22;;;;;;;5.60;1.83;;;9.60;99.90;;;;;;5073871;28;20474;-78
2022/02/05 14:41:32;;;;;;;6.70;2.20;;;10.10;99.90;;;;;;5075729;28;20420;-78
2022/02/05 14:43:59;;;;;;;5.60;2.50;;;10.10;99.90;;;;;;5072831;28;20437;-79
2022/02/05 14:46:25;;;;;;;4.30;2.13;;;10.10;99.90;;;;;;5055991;28;20186;-78
2022/02/05 14:48:50;;;;;;;5.30;2.23;;;10.30;99.90;;;;;;5072628;28;20467;-78
2022/02/05 14:51:16;;;;;;;5.80;2.53;;;10.30;99.90;;;;;;5072437;28;20183;-78
2022/02/05 14:53:42;;;;;;;4.37;2.40;;;10.10;99.90;;;;;;5055863;28;20221;-78
2022/02/05 14:56:08;;;;;;;6.30;2.47;;;10.10;99.90;;;;;;5072544;28;20190;-78
2022/02/05 14:58:34;;;;;;;4.90;2.10;;;10.10;99.90;;;;;;5072143;28;20794;-79
2022/02/05 15:01:03;;;;;;;3.43;2.10;;;10.20;99.90;;;;;;5073181;28;20598;-80
2022/02/05 15:03:29;;;;;;;6.67;2.00;;;10.10;99.90;;;;;;5073705;28;20293;-80
2022/02/05 15:05:59;;;;;;;4.10;1.40;;;10.00;99.90;;;;;;5073537;28;21057;-80
2022/02/05 15:08:25;;;;;;;5.80;1.90;;;9.90;99.90;;;;;;5072946;28;20213;-80
2022/02/05 15:10:50;;;;;;;6.10;1.90;;;9.90;99.90;;;;;;5073856;28;20417;-78
2022/02/05 15:13:16;;;;;;;4.67;2.20;;;9.90;99.90;;;;;;5073140;28;20263;-80
2022/02/05 15:15:50;;;;;;;2.80;1.70;;;9.70;99.90;;;;;;5073361;28;20182;-80
2022/02/05 15:18:16;;;;;;;3.63;1.70;;;9.70;99.90;;;;;;5072744;28;20203;-78
2022/02/05 15:20:42;;;;;;;5.77;2.00;;;9.80;99.90;;;;;;5073121;28;20435;-78
2022/02/05 15:23:09;;;;;;;6.80;2.30;;;9.70;99.90;;;;;;5072797;28;20449;-78
2022/02/05 15:25:35;;;;;;;3.57;1.70;;;9.70;99.90;;;;;;5072405;28;20229;-78
2022/02/05 15:28:00;;;;;;;6.37;1.93;;;9.60;99.90;;;;;;5071993;28;20429;-78
2022/02/05 15:30:29;;;;;;;6.50;1.80;;;9.60;99.90;;;;;;5072030;28;20614;-78
2022/02/05 15:32:55;;;;;;;4.07;1.60;;;9.70;99.90;;;;;;5072010;28;20288;-78
2022/02/05 15:35:21;;;;;;;4.47;1.53;;;9.60;99.90;;;;;;5072270;28;20406;-78
2022/02/05 15:37:47;;;;;;;4.47;1.90;;;9.40;99.90;;;;;;5055215;28;20769;-78
2022/02/05 15:40:22;;;;;;;5.97;1.77;;;9.20;99.90;;;;;;5071807;28;20508;-78
2022/02/05 15:45:32;;;;;;;4.43;1.83;;;9.00;99.90;;;;;;5073404;28;20405;-78
2022/02/05 15:47:57;;;;;;;6.37;1.80;;;9.00;99.90;;;;;;5072137;28;20413;-78
2022/02/05 15:50:23;;;;;;;4.30;1.93;;;8.90;99.90;;;;;;5071979;28;20199;-78
2022/02/05 15:52:49;;;;;;;3.60;1.60;;;8.80;99.90;;;;;;5071590;28;20230;-79
2022/02/05 15:55:17;;;;;;;3.40;1.40;;;8.80;99.90;;;;;;5071649;28;20801;-79
2022/02/05 15:57:59;;;;;;;5.57;2.07;;;8.80;99.90;;;;;;5054593;28;20174;-78
2022/02/05 16:00:30;;;;;;;6.10;1.40;;;8.60;99.90;;;;;;5055212;28;20467;-78
2022/02/05 16:02:56;;;;;;;3.10;1.40;;;8.60;99.90;;;;;;5071678;28;20529;-78